sensor_id;sensor_type;location;lat;lon;timestamp;P1;durP1;ratioP1;P2;durP2;ratioP2
27113;SDS011;14648;49.730;8.614;2022-09-12T00:01:58;6.50;;;5.67;;
27113;SDS011;14648;49.730;8.614;2022-09-12T00:04:24;9.53;;;5.90;;
27113;SDS011;14648;49.730;8.614;2022-09-12T00:06:52;7.13;;;6.43;;
27113;SDS011;14648;49.730;8.614;2022-09-12T00:09:18;6.20;;;5.60;;
27113;SDS011;14648;49.730;8.614;2022-09-12T00:11:44;6.20;;;5.60;;
27113;SDS011;14648;49.730;8.614;2022-09-12T00:14:13;7.43;;;5.67;;
27113;SDS011;14648;49.730;8.614;2022-09-12T00:16:41;7.90;;;6.00;;
27113;SDS011;14648;49.730;8.614;2022-09-12T00:19:08;10.30;;;5.00;;
27113;SDS011;14648;49.730;8.614;2022-09-12T00:21:35;7.50;;;5.37;;
27113;SDS011;14648;49.730;8.614;2022-09-12T00:24:03;6.10;;;5.30;;
27113;SDS011;14648;49.730;8.614;2022-09-12T00:26:30;14.60;;;6.30;;
27113;SDS011;14648;49.730;8.614;2022-09-12T00:28:56;6.37;;;5.70;;
27113;SDS011;14648;49.730;8.614;2022-09-12T00:31:22;19.27;;;5.37;;
27113;SDS011;14648;49.730;8.614;2022-09-12T00:33:50;6.63;;;6.03;;
27113;SDS011;14648;49.730;8.614;2022-09-12T00:36:19;6.33;;;5.43;;
27113;SDS011;14648;49.730;8.614;2022-09-12T00:38:48;8.77;;;6.13;;
27113;SDS011;14648;49.730;8.614;2022-09-12T00:41:17;7.17;;;5.93;;
27113;SDS011;14648;49.730;8.614;2022-09-12T00:43:54;10.27;;;6.00;;
27113;SDS011;14648;49.730;8.614;2022-09-12T00:49:13;12.03;;;5.77;;
27113;SDS011;14648;49.730;8.614;2022-09-12T00:51:58;11.80;;;6.40;;
27113;SDS011;14648;49.730;8.614;2022-09-12T00:54:38;10.80;;;6.10;;
27113;SDS011;14648;49.730;8.614;2022-09-12T00:57:12;5.93;;;5.30;;
27113;SDS011;14648;49.730;8.614;2022-09-12T00:59:55;7.10;;;6.27;;
27113;SDS011;14648;49.730;8.614;2022-09-12T01:02:50;7.43;;;5.73;;
27113;SDS011;14648;49.730;8.614;2022-09-12T01:05:22;6.77;;;5.70;;
27113;SDS011;14648;49.730;8.614;2022-09-12T01:07:49;8.20;;;5.80;;
27113;SDS011;14648;49.730;8.614;2022-09-12T01:10:16;6.27;;;5.40;;
27113;SDS011;14648;49.730;8.614;2022-09-12T01:12:43;6.87;;;5.90;;
27113;SDS011;14648;49.730;8.614;2022-09-12T01:15:09;7.23;;;4.67;;
27113;SDS011;14648;49.730;8.614;2022-09-12T01:17:42;7.90;;;5.53;;
27113;SDS011;14648;49.730;8.614;2022-09-12T01:20:34;6.07;;;5.43;;
27113;SDS011;14648;49.730;8.614;2022-09-12T01:23:20;6.33;;;5.37;;
27113;SDS011;14648;49.730;8.614;2022-09-12T01:32:27;6.43;;;5.07;;
27113;SDS011;14648;49.730;8.614;2022-09-12T01:35:27;9.83;;;5.97;;
27113;SDS011;14648;49.730;8.614;2022-09-12T01:38:14;6.37;;;5.50;;
27113;SDS011;14648;49.730;8.614;2022-09-12T01:50:13;8.27;;;5.30;;
27113;SDS011;14648;49.730;8.614;2022-09-12T01:52:48;17.33;;;6.10;;
27113;SDS011;14648;49.730;8.614;2022-09-12T01:55:49;6.37;;;5.77;;
27113;SDS011;14648;49.730;8.614;2022-09-12T01:58:26;9.77;;;5.53;;
27113;SDS011;14648;49.730;8.614;2022-09-12T02:01:21;7.73;;;5.50;;
27113;SDS011;14648;49.730;8.614;2022-09-12T02:06:40;8.10;;;5.00;;
27113;SDS011;14648;49.730;8.614;2022-09-12T02:09:26;9.00;;;6.10;;
27113;SDS011;14648;49.730;8.614;2022-09-12T02:12:00;8.53;;;5.40;;
27113;SDS011;14648;49.730;8.614;2022-09-12T02:14:31;7.83;;;5.40;;
27113;SDS011;14648;49.730;8.614;2022-09-12T02:17:06;7.20;;;4.87;;
27113;SDS011;14648;49.730;8.614;2022-09-12T02:19:42;7.27;;;5.83;;
27113;SDS011;14648;49.730;8.614;2022-09-12T02:22:38;9.97;;;5.73;;
27113;SDS011;14648;49.730;8.614;2022-09-12T02:25:06;8.77;;;5.30;;
27113;SDS011;14648;49.730;8.614;2022-09-12T02:27:37;6.67;;;5.97;;
27113;SDS011;14648;49.730;8.614;2022-09-12T02:30:09;9.33;;;5.70;;
27113;SDS011;14648;49.730;8.614;2022-09-12T02:41:01;9.43;;;6.83;;
27113;SDS011;14648;49.730;8.614;2022-09-12T02:43:27;6.30;;;5.60;;
27113;SDS011;14648;49.730;8.614;2022-09-12T02:45:53;6.70;;;6.00;;
27113;SDS011;14648;49.730;8.614;2022-09-12T02:48:20;10.60;;;5.97;;
27113;SDS011;14648;49.730;8.614;2022-09-12T02:50:51;7.43;;;6.27;;
27113;SDS011;14648;49.730;8.614;2022-09-12T02:53:18;9.63;;;5.40;;
27113;SDS011;14648;49.730;8.614;2022-09-12T02:55:44;6.03;;;5.10;;
27113;SDS011;14648;49.730;8.614;2022-09-12T02:58:15;6.57;;;4.60;;
27113;SDS011;14648;49.730;8.614;2022-09-12T03:03:29;6.20;;;5.30;;
27113;SDS011;14648;49.730;8.614;2022-09-12T03:09:06;6.40;;;4.80;;
27113;SDS011;14648;49.730;8.614;2022-09-12T03:20:46;9.00;;;5.63;;
27113;SDS011;14648;49.730;8.614;2022-09-12T03:23:34;5.83;;;5.27;;
27113;SDS011;14648;49.730;8.614;2022-09-12T03:26:40;19.63;;;5.47;;
27113;SDS011;14648;49.730;8.614;2022-09-12T03:29:29;6.37;;;5.73;;
27113;SDS011;14648;49.730;8.614;2022-09-12T03:31:57;13.10;;;5.73;;
27113;SDS011;14648;49.730;8.614;2022-09-12T03:34:24;8.20;;;6.33;;
27113;SDS011;14648;49.730;8.614;2022-09-12T03:36:51;5.83;;;4.93;;
27113;SDS011;14648;49.730;8.614;2022-09-12T03:39:22;12.03;;;6.27;;
27113;SDS011;14648;49.730;8.614;2022-09-12T03:41:49;6.73;;;5.60;;
27113;SDS011;14648;49.730;8.614;2022-09-12T03:44:15;10.20;;;5.93;;
27113;SDS011;14648;49.730;8.614;2022-09-12T03:46:42;14.13;;;5.80;;
27113;SDS011;14648;49.730;8.614;2022-09-12T03:49:08;5.47;;;4.97;;
27113;SDS011;14648;49.730;8.614;2022-09-12T03:51:34;13.90;;;5.13;;
27113;SDS011;14648;49.730;8.614;2022-09-12T03:54:01;5.83;;;5.23;;
27113;SDS011;14648;49.730;8.614;2022-09-12T03:56:27;7.57;;;5.50;;
27113;SDS011;14648;49.730;8.614;2022-09-12T03:58:53;6.80;;;6.10;;
27113;SDS011;14648;49.730;8.614;2022-09-12T04:01:19;8.07;;;5.83;;
27113;SDS011;14648;49.730;8.614;2022-09-12T04:03:46;10.60;;;6.83;;
27113;SDS011;14648;49.730;8.614;2022-09-12T04:06:15;17.00;;;6.70;;
27113;SDS011;14648;49.730;8.614;2022-09-12T04:08:46;8.40;;;6.50;;
27113;SDS011;14648;49.730;8.614;2022-09-12T04:11:14;5.77;;;5.27;;
27113;SDS011;14648;49.730;8.614;2022-09-12T04:13:43;13.80;;;5.20;;
27113;SDS011;14648;49.730;8.614;2022-09-12T04:16:10;5.53;;;4.90;;
27113;SDS011;14648;49.730;8.614;2022-09-12T04:18:38;6.83;;;5.33;;
27113;SDS011;14648;49.730;8.614;2022-09-12T04:21:05;9.17;;;6.07;;
27113;SDS011;14648;49.730;8.614;2022-09-12T04:23:42;9.27;;;5.80;;
27113;SDS011;14648;49.730;8.614;2022-09-12T04:26:09;8.17;;;6.40;;
27113;SDS011;14648;49.730;8.614;2022-09-12T04:28:36;7.17;;;5.17;;
27113;SDS011;14648;49.730;8.614;2022-09-12T04:31:03;7.03;;;6.33;;
27113;SDS011;14648;49.730;8.614;2022-09-12T04:33:36;9.07;;;5.90;;
27113;SDS011;14648;49.730;8.614;2022-09-12T04:36:03;9.23;;;5.97;;
27113;SDS011;14648;49.730;8.614;2022-09-12T04:38:40;15.63;;;6.10;;
27113;SDS011;14648;49.730;8.614;2022-09-12T04:41:15;10.50;;;6.83;;
27113;SDS011;14648;49.730;8.614;2022-09-12T04:43:47;9.73;;;6.27;;
27113;SDS011;14648;49.730;8.614;2022-09-12T04:46:24;6.50;;;5.70;;
27113;SDS011;14648;49.730;8.614;2022-09-12T04:48:50;6.83;;;5.93;;
27113;SDS011;14648;49.730;8.614;2022-09-12T04:51:17;6.90;;;5.70;;
27113;SDS011;14648;49.730;8.614;2022-09-12T04:53:48;8.03;;;5.60;;
27113;SDS011;14648;49.730;8.614;2022-09-12T04:56:16;6.80;;;5.70;;
27113;SDS011;14648;49.730;8.614;2022-09-12T04:58:43;9.43;;;6.33;;
27113;SDS011;14648;49.730;8.614;2022-09-12T05:01:11;6.67;;;5.40;;
27113;SDS011;14648;49.730;8.614;2022-09-12T05:03:39;9.20;;;5.87;;
27113;SDS011;14648;49.730;8.614;2022-09-12T05:06:19;7.07;;;5.40;;
27113;SDS011;14648;49.730;8.614;2022-09-12T05:08:48;9.27;;;5.87;;
27113;SDS011;14648;49.730;8.614;2022-09-12T05:11:16;6.40;;;5.63;;
27113;SDS011;14648;49.730;8.614;2022-09-12T05:13:46;6.43;;;5.23;;
27113;SDS011;14648;49.730;8.614;2022-09-12T05:16:12;8.47;;;6.33;;
27113;SDS011;14648;49.730;8.614;2022-09-12T05:18:40;9.93;;;6.63;;
27113;SDS011;14648;49.730;8.614;2022-09-12T05:21:07;7.20;;;6.10;;
27113;SDS011;14648;49.730;8.614;2022-09-12T05:23:35;15.93;;;5.80;;
27113;SDS011;14648;49.730;8.614;2022-09-12T05:26:01;7.80;;;5.70;;
27113;SDS011;14648;49.730;8.614;2022-09-12T05:28:30;6.83;;;6.10;;
27113;SDS011;14648;49.730;8.614;2022-09-12T05:31:06;13.33;;;6.67;;
27113;SDS011;14648;49.730;8.614;2022-09-12T05:33:44;9.53;;;6.63;;
27113;SDS011;14648;49.730;8.614;2022-09-12T05:36:14;9.87;;;6.60;;
27113;SDS011;14648;49.730;8.614;2022-09-12T05:38:45;9.97;;;6.00;;
27113;SDS011;14648;49.730;8.614;2022-09-12T05:41:13;8.93;;;6.80;;
27113;SDS011;14648;49.730;8.614;2022-09-12T05:43:51;10.83;;;6.07;;
27113;SDS011;14648;49.730;8.614;2022-09-12T05:46:19;7.20;;;5.30;;
27113;SDS011;14648;49.730;8.614;2022-09-12T05:48:47;11.40;;;6.83;;
27113;SDS011;14648;49.730;8.614;2022-09-12T05:51:15;10.53;;;6.00;;
27113;SDS011;14648;49.730;8.614;2022-09-12T05:53:45;7.47;;;5.83;;
27113;SDS011;14648;49.730;8.614;2022-09-12T05:56:16;8.73;;;6.37;;
27113;SDS011;14648;49.730;8.614;2022-09-12T05:58:52;9.67;;;5.90;;
27113;SDS011;14648;49.730;8.614;2022-09-12T06:01:22;11.80;;;6.90;;
27113;SDS011;14648;49.730;8.614;2022-09-12T06:03:50;7.73;;;6.20;;
27113;SDS011;14648;49.730;8.614;2022-09-12T06:06:21;8.70;;;6.57;;
27113;SDS011;14648;49.730;8.614;2022-09-12T06:08:50;9.57;;;6.40;;
27113;SDS011;14648;49.730;8.614;2022-09-12T06:11:19;15.60;;;7.00;;
27113;SDS011;14648;49.730;8.614;2022-09-12T06:13:48;6.10;;;5.53;;
27113;SDS011;14648;49.730;8.614;2022-09-12T06:16:20;12.20;;;6.23;;
27113;SDS011;14648;49.730;8.614;2022-09-12T06:18:50;8.73;;;6.63;;
27113;SDS011;14648;49.730;8.614;2022-09-12T06:21:22;10.03;;;6.73;;
27113;SDS011;14648;49.730;8.614;2022-09-12T06:23:50;11.07;;;6.97;;
27113;SDS011;14648;49.730;8.614;2022-09-12T06:26:19;9.60;;;6.60;;
27113;SDS011;14648;49.730;8.614;2022-09-12T06:28:47;8.33;;;6.30;;
27113;SDS011;14648;49.730;8.614;2022-09-12T06:31:15;9.37;;;7.60;;
27113;SDS011;14648;49.730;8.614;2022-09-12T06:33:44;18.70;;;7.33;;
27113;SDS011;14648;49.730;8.614;2022-09-12T06:36:14;7.73;;;6.93;;
27113;SDS011;14648;49.730;8.614;2022-09-12T06:38:52;9.10;;;6.80;;
27113;SDS011;14648;49.730;8.614;2022-09-12T06:41:21;12.23;;;6.60;;
27113;SDS011;14648;49.730;8.614;2022-09-12T06:43:48;10.97;;;6.53;;
27113;SDS011;14648;49.730;8.614;2022-09-12T06:46:14;9.60;;;6.50;;
27113;SDS011;14648;49.730;8.614;2022-09-12T06:48:40;8.73;;;7.40;;
27113;SDS011;14648;49.730;8.614;2022-09-12T06:51:08;8.33;;;7.50;;
27113;SDS011;14648;49.730;8.614;2022-09-12T06:53:39;13.30;;;7.63;;
27113;SDS011;14648;49.730;8.614;2022-09-12T06:56:10;10.33;;;7.47;;
27113;SDS011;14648;49.730;8.614;2022-09-12T06:58:37;9.40;;;7.30;;
27113;SDS011;14648;49.730;8.614;2022-09-12T07:01:05;13.10;;;7.30;;
27113;SDS011;14648;49.730;8.614;2022-09-12T07:03:39;10.43;;;7.63;;
27113;SDS011;14648;49.730;8.614;2022-09-12T07:06:07;15.57;;;8.30;;
27113;SDS011;14648;49.730;8.614;2022-09-12T07:08:35;11.30;;;8.13;;
27113;SDS011;14648;49.730;8.614;2022-09-12T07:11:09;9.77;;;7.40;;
27113;SDS011;14648;49.730;8.614;2022-09-12T07:13:38;16.40;;;9.50;;
27113;SDS011;14648;49.730;8.614;2022-09-12T07:16:05;11.23;;;8.87;;
27113;SDS011;14648;49.730;8.614;2022-09-12T07:18:32;12.73;;;9.00;;
27113;SDS011;14648;49.730;8.614;2022-09-12T07:21:02;13.93;;;8.50;;
27113;SDS011;14648;49.730;8.614;2022-09-12T07:23:30;11.43;;;8.67;;
27113;SDS011;14648;49.730;8.614;2022-09-12T07:25:56;12.43;;;7.93;;
27113;SDS011;14648;49.730;8.614;2022-09-12T07:28:24;15.63;;;10.10;;
27113;SDS011;14648;49.730;8.614;2022-09-12T07:30:52;10.73;;;8.47;;
27113;SDS011;14648;49.730;8.614;2022-09-12T07:33:19;10.10;;;8.00;;
27113;SDS011;14648;49.730;8.614;2022-09-12T07:35:47;11.30;;;8.60;;
27113;SDS011;14648;49.730;8.614;2022-09-12T07:38:13;12.53;;;8.33;;
27113;SDS011;14648;49.730;8.614;2022-09-12T07:40:40;13.93;;;10.07;;
27113;SDS011;14648;49.730;8.614;2022-09-12T07:43:07;16.03;;;10.90;;
27113;SDS011;14648;49.730;8.614;2022-09-12T07:45:33;18.43;;;12.40;;
27113;SDS011;14648;49.730;8.614;2022-09-12T07:47:59;15.47;;;11.40;;
27113;SDS011;14648;49.730;8.614;2022-09-12T07:50:25;19.43;;;12.33;;
27113;SDS011;14648;49.730;8.614;2022-09-12T07:52:52;17.37;;;12.20;;
27113;SDS011;14648;49.730;8.614;2022-09-12T07:55:19;13.77;;;10.20;;
27113;SDS011;14648;49.730;8.614;2022-09-12T07:57:49;15.77;;;11.60;;
27113;SDS011;14648;49.730;8.614;2022-09-12T08:00:18;23.83;;;12.97;;
27113;SDS011;14648;49.730;8.614;2022-09-12T08:02:44;26.63;;;11.60;;
27113;SDS011;14648;49.730;8.614;2022-09-12T08:05:09;15.80;;;11.13;;
27113;SDS011;14648;49.730;8.614;2022-09-12T08:07:35;16.47;;;11.60;;
27113;SDS011;14648;49.730;8.614;2022-09-12T08:10:01;17.40;;;11.13;;
27113;SDS011;14648;49.730;8.614;2022-09-12T08:12:27;16.63;;;11.70;;
27113;SDS011;14648;49.730;8.614;2022-09-12T08:14:53;19.63;;;10.37;;
27113;SDS011;14648;49.730;8.614;2022-09-12T08:17:19;15.50;;;11.10;;
27113;SDS011;14648;49.730;8.614;2022-09-12T08:19:45;12.83;;;10.70;;
27113;SDS011;14648;49.730;8.614;2022-09-12T08:22:10;19.23;;;12.27;;
27113;SDS011;14648;49.730;8.614;2022-09-12T08:24:37;16.20;;;11.47;;
27113;SDS011;14648;49.730;8.614;2022-09-12T08:27:06;19.20;;;11.27;;
27113;SDS011;14648;49.730;8.614;2022-09-12T08:29:32;11.80;;;9.73;;
27113;SDS011;14648;49.730;8.614;2022-09-12T08:31:58;18.40;;;11.07;;
27113;SDS011;14648;49.730;8.614;2022-09-12T08:34:24;17.80;;;11.17;;
27113;SDS011;14648;49.730;8.614;2022-09-12T08:36:50;16.30;;;9.67;;
27113;SDS011;14648;49.730;8.614;2022-09-12T08:39:18;19.80;;;11.53;;
27113;SDS011;14648;49.730;8.614;2022-09-12T08:41:46;12.73;;;10.43;;
27113;SDS011;14648;49.730;8.614;2022-09-12T08:47:33;11.20;;;8.93;;
27113;SDS011;14648;49.730;8.614;2022-09-12T08:55:35;10.73;;;8.63;;
27113;SDS011;14648;49.730;8.614;2022-09-12T09:12:36;14.23;;;9.63;;
27113;SDS011;14648;49.730;8.614;2022-09-12T09:18:46;21.63;;;10.20;;
27113;SDS011;14648;49.730;8.614;2022-09-12T09:21:30;9.00;;;7.83;;
27113;SDS011;14648;49.730;8.614;2022-09-12T09:24:04;10.30;;;7.93;;
27113;SDS011;14648;49.730;8.614;2022-09-12T09:26:39;12.07;;;8.40;;
27113;SDS011;14648;49.730;8.614;2022-09-12T09:29:25;13.10;;;7.77;;
27113;SDS011;14648;49.730;8.614;2022-09-12T09:31:59;14.40;;;10.13;;
27113;SDS011;14648;49.730;8.614;2022-09-12T09:34:28;12.57;;;8.30;;
27113;SDS011;14648;49.730;8.614;2022-09-12T09:37:01;11.40;;;7.50;;
27113;SDS011;14648;49.730;8.614;2022-09-12T09:42:37;8.30;;;6.83;;
27113;SDS011;14648;49.730;8.614;2022-09-12T09:45:25;7.60;;;6.57;;
27113;SDS011;14648;49.730;8.614;2022-09-12T09:47:57;10.73;;;7.97;;
27113;SDS011;14648;49.730;8.614;2022-09-12T09:50:40;8.00;;;6.70;;
27113;SDS011;14648;49.730;8.614;2022-09-12T09:55:59;10.83;;;6.13;;
27113;SDS011;14648;49.730;8.614;2022-09-12T09:58:33;7.77;;;7.00;;
27113;SDS011;14648;49.730;8.614;2022-09-12T10:01:01;8.40;;;5.90;;
27113;SDS011;14648;49.730;8.614;2022-09-12T10:03:37;7.10;;;6.43;;
27113;SDS011;14648;49.730;8.614;2022-09-12T10:06:20;7.60;;;6.70;;
27113;SDS011;14648;49.730;8.614;2022-09-12T10:09:05;7.33;;;6.47;;
27113;SDS011;14648;49.730;8.614;2022-09-12T10:11:44;9.63;;;6.27;;
27113;SDS011;14648;49.730;8.614;2022-09-12T10:17:24;7.17;;;6.47;;
27113;SDS011;14648;49.730;8.614;2022-09-12T10:25:47;6.50;;;5.50;;
27113;SDS011;14648;49.730;8.614;2022-09-12T10:28:23;7.37;;;4.73;;
27113;SDS011;14648;49.730;8.614;2022-09-12T10:30:56;6.43;;;5.83;;
27113;SDS011;14648;49.730;8.614;2022-09-12T10:33:23;5.50;;;5.00;;
27113;SDS011;14648;49.730;8.614;2022-09-12T10:35:51;5.10;;;4.63;;
27113;SDS011;14648;49.730;8.614;2022-09-12T10:38:30;6.20;;;4.97;;
27113;SDS011;14648;49.730;8.614;2022-09-12T10:41:01;6.00;;;5.50;;
27113;SDS011;14648;49.730;8.614;2022-09-12T10:45:58;5.60;;;5.20;;
27113;SDS011;14648;49.730;8.614;2022-09-12T10:48:49;8.03;;;6.30;;
27113;SDS011;14648;49.730;8.614;2022-09-12T10:53:50;10.13;;;5.43;;
27113;SDS011;14648;49.730;8.614;2022-09-12T10:56:27;5.40;;;4.90;;
27113;SDS011;14648;49.730;8.614;2022-09-12T10:59:05;5.13;;;4.67;;
27113;SDS011;14648;49.730;8.614;2022-09-12T11:01:45;6.43;;;4.63;;
27113;SDS011;14648;49.730;8.614;2022-09-12T11:04:38;5.57;;;4.47;;
27113;SDS011;14648;49.730;8.614;2022-09-12T11:08:10;8.30;;;3.80;;
27113;SDS011;14648;49.730;8.614;2022-09-12T11:10:49;6.33;;;3.93;;
27113;SDS011;14648;49.730;8.614;2022-09-12T11:25:38;4.43;;;4.13;;
27113;SDS011;14648;49.730;8.614;2022-09-12T11:28:47;4.00;;;3.70;;
27113;SDS011;14648;49.730;8.614;2022-09-12T11:31:39;4.03;;;3.73;;
27113;SDS011;14648;49.730;8.614;2022-09-12T11:34:25;4.27;;;3.87;;
27113;SDS011;14648;49.730;8.614;2022-09-12T11:40:31;6.30;;;4.23;;
27113;SDS011;14648;49.730;8.614;2022-09-12T11:43:12;5.18;;;4.07;;
27113;SDS011;14648;49.730;8.614;2022-09-12T11:46:18;8.97;;;3.70;;
27113;SDS011;14648;49.730;8.614;2022-09-12T11:51:38;4.87;;;4.47;;
27113;SDS011;14648;49.730;8.614;2022-09-12T11:54:29;7.65;;;4.20;;
27113;SDS011;14648;49.730;8.614;2022-09-12T12:02:53;4.33;;;4.03;;
27113;SDS011;14648;49.730;8.614;2022-09-12T12:08:06;3.47;;;3.17;;
27113;SDS011;14648;49.730;8.614;2022-09-12T12:13:08;4.07;;;3.78;;
27113;SDS011;14648;49.730;8.614;2022-09-12T12:15:51;4.40;;;3.90;;
27113;SDS011;14648;49.730;8.614;2022-09-12T12:18:26;4.18;;;3.83;;
27113;SDS011;14648;49.730;8.614;2022-09-12T12:20:53;4.20;;;3.90;;
27113;SDS011;14648;49.730;8.614;2022-09-12T12:23:30;3.75;;;3.45;;
27113;SDS011;14648;49.730;8.614;2022-09-12T12:26:02;4.22;;;3.65;;
27113;SDS011;14648;49.730;8.614;2022-09-12T12:28:54;5.20;;;4.20;;
27113;SDS011;14648;49.730;8.614;2022-09-12T12:31:22;4.35;;;4.03;;
27113;SDS011;14648;49.730;8.614;2022-09-12T12:42:01;3.45;;;3.15;;
27113;SDS011;14648;49.730;8.614;2022-09-12T12:44:46;3.55;;;3.35;;
27113;SDS011;14648;49.730;8.614;2022-09-12T12:49:51;4.20;;;3.03;;
27113;SDS011;14648;49.730;8.614;2022-09-12T12:52:27;4.05;;;3.75;;
27113;SDS011;14648;49.730;8.614;2022-09-12T12:54:58;3.85;;;3.65;;
27113;SDS011;14648;49.730;8.614;2022-09-12T12:57:44;3.60;;;3.40;;
27113;SDS011;14648;49.730;8.614;2022-09-12T13:05:41;3.72;;;3.28;;
27113;SDS011;14648;49.730;8.614;2022-09-12T13:08:25;3.15;;;2.92;;
27113;SDS011;14648;49.730;8.614;2022-09-12T13:16:00;3.35;;;3.15;;
27113;SDS011;14648;49.730;8.614;2022-09-12T13:18:46;3.15;;;2.90;;
27113;SDS011;14648;49.730;8.614;2022-09-12T13:21:17;3.00;;;2.80;;
27113;SDS011;14648;49.730;8.614;2022-09-12T13:24:04;3.00;;;2.80;;
27113;SDS011;14648;49.730;8.614;2022-09-12T13:26:42;2.60;;;2.40;;
27113;SDS011;14648;49.730;8.614;2022-09-12T13:29:21;2.63;;;2.47;;
27113;SDS011;14648;49.730;8.614;2022-09-12T13:31:52;2.67;;;2.55;;
27113;SDS011;14648;49.730;8.614;2022-09-12T13:37:42;7.07;;;3.83;;
27113;SDS011;14648;49.730;8.614;2022-09-12T13:40:31;2.40;;;2.20;;
27113;SDS011;14648;49.730;8.614;2022-09-12T13:43:15;6.45;;;4.25;;
27113;SDS011;14648;49.730;8.614;2022-09-12T13:45:47;3.30;;;2.80;;
27113;SDS011;14648;49.730;8.614;2022-09-12T13:48:20;3.08;;;2.78;;
27113;SDS011;14648;49.730;8.614;2022-09-12T13:53:18;4.18;;;3.78;;
27113;SDS011;14648;49.730;8.614;2022-09-12T13:55:49;3.20;;;2.90;;
27113;SDS011;14648;49.730;8.614;2022-09-12T13:58:23;4.03;;;3.63;;
27113;SDS011;14648;49.730;8.614;2022-09-12T14:03:53;3.17;;;2.97;;
27113;SDS011;14648;49.730;8.614;2022-09-12T14:06:43;3.38;;;3.17;;
27113;SDS011;14648;49.730;8.614;2022-09-12T14:09:31;2.95;;;2.75;;
27113;SDS011;14648;49.730;8.614;2022-09-12T14:12:02;5.20;;;2.70;;
27113;SDS011;14648;49.730;8.614;2022-09-12T14:14:34;2.70;;;2.60;;
27113;SDS011;14648;49.730;8.614;2022-09-12T14:20:05;2.92;;;2.72;;
27113;SDS011;14648;49.730;8.614;2022-09-12T14:22:40;2.47;;;2.20;;
27113;SDS011;14648;49.730;8.614;2022-09-12T14:25:06;4.93;;;3.13;;
27113;SDS011;14648;49.730;8.614;2022-09-12T14:27:50;2.20;;;2.10;;
27113;SDS011;14648;49.730;8.614;2022-09-12T14:30:28;2.42;;;2.33;;
27113;SDS011;14648;49.730;8.614;2022-09-12T14:35:35;3.35;;;2.40;;
27113;SDS011;14648;49.730;8.614;2022-09-12T14:38:06;2.10;;;2.00;;
27113;SDS011;14648;49.730;8.614;2022-09-12T14:40:47;2.25;;;2.05;;
27113;SDS011;14648;49.730;8.614;2022-09-12T14:43:19;2.45;;;2.35;;
27113;SDS011;14648;49.730;8.614;2022-09-12T14:45:51;1.77;;;1.67;;
27113;SDS011;14648;49.730;8.614;2022-09-12T14:48:30;2.75;;;1.90;;
27113;SDS011;14648;49.730;8.614;2022-09-12T14:51:00;2.10;;;2.00;;
27113;SDS011;14648;49.730;8.614;2022-09-12T14:53:31;1.80;;;1.70;;
27113;SDS011;14648;49.730;8.614;2022-09-12T14:58:37;2.28;;;2.05;;
27113;SDS011;14648;49.730;8.614;2022-09-12T15:03:34;2.10;;;2.00;;
27113;SDS011;14648;49.730;8.614;2022-09-12T15:06:26;4.30;;;2.22;;
27113;SDS011;14648;49.730;8.614;2022-09-12T15:09:01;3.05;;;2.65;;
27113;SDS011;14648;49.730;8.614;2022-09-12T15:11:31;2.40;;;2.30;;
27113;SDS011;14648;49.730;8.614;2022-09-12T15:13:57;3.10;;;2.08;;
27113;SDS011;14648;49.730;8.614;2022-09-12T15:16:30;2.03;;;1.92;;
27113;SDS011;14648;49.730;8.614;2022-09-12T15:18:56;2.53;;;2.33;;
27113;SDS011;14648;49.730;8.614;2022-09-12T15:21:22;2.38;;;2.28;;
27113;SDS011;14648;49.730;8.614;2022-09-12T15:23:48;2.03;;;1.92;;
27113;SDS011;14648;49.730;8.614;2022-09-12T15:26:19;2.28;;;2.08;;
27113;SDS011;14648;49.730;8.614;2022-09-12T15:28:47;2.35;;;1.90;;
27113;SDS011;14648;49.730;8.614;2022-09-12T15:31:32;3.08;;;1.90;;
27113;SDS011;14648;49.730;8.614;2022-09-12T15:33:59;2.20;;;2.10;;
27113;SDS011;14648;49.730;8.614;2022-09-12T15:36:26;2.35;;;1.70;;
27113;SDS011;14648;49.730;8.614;2022-09-12T15:38:53;2.40;;;2.30;;
27113;SDS011;14648;49.730;8.614;2022-09-12T15:41:27;2.28;;;2.17;;
27113;SDS011;14648;49.730;8.614;2022-09-12T15:44:02;3.25;;;2.50;;
27113;SDS011;14648;49.730;8.614;2022-09-12T15:46:30;2.47;;;2.38;;
27113;SDS011;14648;49.730;8.614;2022-09-12T15:48:56;4.72;;;2.10;;
27113;SDS011;14648;49.730;8.614;2022-09-12T15:51:21;2.13;;;1.95;;
27113;SDS011;14648;49.730;8.614;2022-09-12T15:53:48;1.95;;;1.77;;
27113;SDS011;14648;49.730;8.614;2022-09-12T15:56:15;2.25;;;2.15;;
27113;SDS011;14648;49.730;8.614;2022-09-12T15:58:43;2.58;;;1.90;;
27113;SDS011;14648;49.730;8.614;2022-09-12T16:01:13;2.17;;;1.92;;
27113;SDS011;14648;49.730;8.614;2022-09-12T16:03:41;2.53;;;2.42;;
27113;SDS011;14648;49.730;8.614;2022-09-12T16:06:07;2.08;;;1.95;;
27113;SDS011;14648;49.730;8.614;2022-09-12T16:08:35;1.80;;;1.70;;
27113;SDS011;14648;49.730;8.614;2022-09-12T16:11:03;2.20;;;1.77;;
27113;SDS011;14648;49.730;8.614;2022-09-12T16:13:32;2.28;;;2.13;;
27113;SDS011;14648;49.730;8.614;2022-09-12T16:15:58;3.65;;;2.17;;
27113;SDS011;14648;49.730;8.614;2022-09-12T16:18:25;2.30;;;2.20;;
27113;SDS011;14648;49.730;8.614;2022-09-12T16:20:55;1.83;;;1.73;;
27113;SDS011;14648;49.730;8.614;2022-09-12T16:23:22;2.38;;;2.17;;
27113;SDS011;14648;49.730;8.614;2022-09-12T16:25:55;2.10;;;2.00;;
27113;SDS011;14648;49.730;8.614;2022-09-12T16:28:28;2.78;;;2.00;;
27113;SDS011;14648;49.730;8.614;2022-09-12T16:30:55;2.10;;;1.98;;
27113;SDS011;14648;49.730;8.614;2022-09-12T16:33:22;2.28;;;1.88;;
27113;SDS011;14648;49.730;8.614;2022-09-12T16:35:48;1.92;;;1.45;;
27113;SDS011;14648;49.730;8.614;2022-09-12T16:38:15;2.15;;;1.98;;
27113;SDS011;14648;49.730;8.614;2022-09-12T16:40:42;1.98;;;1.85;;
27113;SDS011;14648;49.730;8.614;2022-09-12T16:43:07;1.88;;;1.77;;
27113;SDS011;14648;49.730;8.614;2022-09-12T16:45:33;2.10;;;2.00;;
27113;SDS011;14648;49.730;8.614;2022-09-12T16:47:58;3.50;;;1.88;;
27113;SDS011;14648;49.730;8.614;2022-09-12T16:50:24;2.10;;;1.98;;
27113;SDS011;14648;49.730;8.614;2022-09-12T16:52:51;1.67;;;1.58;;
27113;SDS011;14648;49.730;8.614;2022-09-12T16:55:17;2.10;;;2.00;;
27113;SDS011;14648;49.730;8.614;2022-09-12T16:57:43;3.38;;;1.80;;
27113;SDS011;14648;49.730;8.614;2022-09-12T17:00:10;5.22;;;2.15;;
27113;SDS011;14648;49.730;8.614;2022-09-12T17:02:36;1.50;;;1.40;;
27113;SDS011;14648;49.730;8.614;2022-09-12T17:05:01;1.67;;;1.58;;
27113;SDS011;14648;49.730;8.614;2022-09-12T17:07:27;1.67;;;1.50;;
27113;SDS011;14648;49.730;8.614;2022-09-12T17:09:53;6.80;;;1.97;;
27113;SDS011;14648;49.730;8.614;2022-09-12T17:12:19;2.60;;;1.33;;
27113;SDS011;14648;49.730;8.614;2022-09-12T17:14:44;7.30;;;2.03;;
27113;SDS011;14648;49.730;8.614;2022-09-12T17:17:10;1.87;;;1.77;;
27113;SDS011;14648;49.730;8.614;2022-09-12T17:19:36;2.00;;;1.90;;
27113;SDS011;14648;49.730;8.614;2022-09-12T17:22:01;1.90;;;1.80;;
27113;SDS011;14648;49.730;8.614;2022-09-12T17:24:27;2.40;;;2.20;;
27113;SDS011;14648;49.730;8.614;2022-09-12T17:26:53;3.00;;;2.27;;
27113;SDS011;14648;49.730;8.614;2022-09-12T17:29:18;1.77;;;1.67;;
27113;SDS011;14648;49.730;8.614;2022-09-12T17:31:45;3.73;;;2.33;;
27113;SDS011;14648;49.730;8.614;2022-09-12T17:34:11;3.97;;;2.20;;
27113;SDS011;14648;49.730;8.614;2022-09-12T17:36:42;2.27;;;2.07;;
27113;SDS011;14648;49.730;8.614;2022-09-12T17:39:09;4.73;;;2.37;;
27113;SDS011;14648;49.730;8.614;2022-09-12T17:41:35;1.80;;;1.70;;
27113;SDS011;14648;49.730;8.614;2022-09-12T17:44:01;2.57;;;2.37;;
27113;SDS011;14648;49.730;8.614;2022-09-12T17:46:32;2.10;;;2.00;;
27113;SDS011;14648;49.730;8.614;2022-09-12T17:49:01;5.43;;;2.07;;
27113;SDS011;14648;49.730;8.614;2022-09-12T17:51:30;4.87;;;2.20;;
27113;SDS011;14648;49.730;8.614;2022-09-12T17:54:04;2.10;;;2.00;;